Time;durP1;ratioP1;P1;durP2;ratioP2;P2;SDS_P1;SDS_P2;PMS_P1;PMS_P2;Temp;Humidity;BMP_temperature;BMP_pressure;BME280_temperature;BME280_humidity;BME280_pressure;Samples;Min_cycle;Max_cycle;Signal;HPM_P1;HPM_P2
2023/09/12 00:00:48;;;;;;;0.20;0.20;;;;;;;;;;4871521;29;20072;-71
2023/09/12 00:03:18;;;;;;;0.10;0.10;;;;;;;;;;4854932;29;20555;-71
2023/09/12 00:05:53;;;;;;;0.63;0.40;;;;;;;;;;4871342;29;20060;-71
2023/09/12 00:08:21;;;;;;;0.45;0.45;;;;;;;;;;4869672;29;20432;-71
2023/09/12 00:11:01;;;;;;;0.08;0.08;;;;;;;;;;4871284;29;20049;-71
2023/09/12 00:13:29;;;;;;;0.00;0.00;;;;;;;;;;4871288;29;20053;-71
2023/09/12 00:15:57;;;;;;;0.20;0.20;;;;;;;;;;4871747;29;20060;-71
2023/09/12 00:18:24;;;;;;;0.25;0.25;;;;;;;;;;4870605;29;20049;-71
2023/09/12 00:20:52;;;;;;;0.00;0.00;;;;;;;;;;4856796;29;20057;-71
2023/09/12 00:23:21;;;;;;;0.32;0.32;;;;;;;;;;4871293;29;20049;-71
2023/09/12 00:25:50;;;;;;;0.30;0.30;;;;;;;;;;4871237;29;20057;-71
2023/09/12 00:28:18;;;;;;;0.82;0.82;;;;;;;;;;4870938;29;20067;-71
2023/09/12 00:30:45;;;;;;;0.20;0.20;;;;;;;;;;4872417;29;20093;-70
2023/09/12 00:33:13;;;;;;;0.20;0.20;;;;;;;;;;4871981;29;20829;-71
2023/09/12 00:35:41;;;;;;;0.00;0.00;;;;;;;;;;4872571;29;20116;-71
2023/09/12 00:38:09;;;;;;;0.40;0.40;;;;;;;;;;4864337;29;20424;-71
2023/09/12 00:40:37;;;;;;;0.25;0.25;;;;;;;;;;4854446;29;20049;-71
2023/09/12 00:43:04;;;;;;;0.47;0.45;;;;;;;;;;4854578;29;20056;-71
2023/09/12 00:45:32;;;;;;;0.00;0.00;;;;;;;;;;4854089;29;20101;-71
2023/09/12 00:48:02;;;;;;;0.00;0.00;;;;;;;;;;4871453;29;20135;-71
2023/09/12 00:50:31;;;;;;;0.00;0.00;;;;;;;;;;4871131;29;20067;-71
2023/09/12 00:52:58;;;;;;;0.20;0.20;;;;;;;;;;4871700;29;20060;-71
2023/09/12 00:55:27;;;;;;;0.00;0.00;;;;;;;;;;4857436;29;20424;-71
2023/09/12 00:57:54;;;;;;;0.00;0.00;;;;;;;;;;4862537;29;20448;-71
2023/09/12 01:00:22;;;;;;;0.17;0.17;;;;;;;;;;4852819;29;20061;-71
2023/09/12 01:02:51;;;;;;;0.00;0.00;;;;;;;;;;4853894;29;20076;-71
2023/09/12 01:05:19;;;;;;;0.00;0.00;;;;;;;;;;4869835;29;20198;-71
2023/09/12 01:07:47;;;;;;;0.00;0.00;;;;;;;;;;4871031;29;20080;-71
2023/09/12 01:10:15;;;;;;;0.20;0.20;;;;;;;;;;4856978;29;20060;-71
2023/09/12 01:12:42;;;;;;;0.00;0.00;;;;;;;;;;4871541;29;20060;-71
2023/09/12 01:15:13;;;;;;;0.00;0.00;;;;;;;;;;4871449;29;20056;-72
2023/09/12 01:17:46;;;;;;;0.00;0.00;;;;;;;;;;4860720;29;20060;-71
2023/09/12 01:20:25;;;;;;;0.20;0.20;;;;;;;;;;4870377;29;20064;-71
2023/09/12 01:22:53;;;;;;;0.10;0.10;;;;;;;;;;4865143;29;20216;-71
2023/09/12 01:25:20;;;;;;;0.13;0.13;;;;;;;;;;4869699;29;20108;-71
2023/09/12 01:27:51;;;;;;;0.00;0.00;;;;;;;;;;4854180;29;20081;-71
2023/09/12 01:30:21;;;;;;;0.17;0.17;;;;;;;;;;4853261;29;20481;-71
2023/09/12 01:32:49;;;;;;;0.00;0.00;;;;;;;;;;4888292;23;21159;-72
2023/09/12 01:35:17;;;;;;;0.20;0.17;;;;;;;;;;4888671;29;20433;-72
2023/09/12 01:37:44;;;;;;;0.10;0.10;;;;;;;;;;4887952;29;20471;-72
2023/09/12 01:40:12;;;;;;;0.90;0.55;;;;;;;;;;4871820;29;20049;-72
2023/09/12 01:42:47;;;;;;;0.73;0.73;;;;;;;;;;4883743;29;20059;-72
2023/09/12 01:45:17;;;;;;;0.40;0.40;;;;;;;;;;4889495;29;20478;-72
2023/09/12 01:47:48;;;;;;;0.00;0.00;;;;;;;;;;4878299;29;20571;-72
2023/09/12 01:50:16;;;;;;;0.00;0.00;;;;;;;;;;4874934;29;20091;-72
2023/09/12 01:52:44;;;;;;;0.35;0.35;;;;;;;;;;4889350;29;20549;-72
2023/09/12 01:55:12;;;;;;;0.10;0.10;;;;;;;;;;4866447;29;20048;-72
2023/09/12 01:57:39;;;;;;;0.00;0.00;;;;;;;;;;4888613;29;20063;-72
2023/09/12 02:00:08;;;;;;;0.20;0.10;;;;;;;;;;4871750;29;20060;-72
2023/09/12 02:02:35;;;;;;;0.40;0.40;;;;;;;;;;4889202;29;20052;-72
2023/09/12 02:05:17;;;;;;;0.85;0.85;;;;;;;;;;4872649;29;20587;-72
2023/09/12 02:07:45;;;;;;;0.45;0.45;;;;;;;;;;4883362;29;20412;-72
2023/09/12 02:10:13;;;;;;;0.68;0.68;;;;;;;;;;4865342;29;20060;-72
2023/09/12 02:12:40;;;;;;;0.65;0.65;;;;;;;;;;4882915;29;20104;-72
2023/09/12 02:15:08;;;;;;;0.05;0.05;;;;;;;;;;4889087;29;20434;-72
2023/09/12 02:17:35;;;;;;;3.15;2.97;;;;;;;;;;4888313;29;20056;-72
2023/09/12 02:20:05;;;;;;;3.90;3.55;;;;;;;;;;4887944;29;20131;-72
2023/09/12 02:22:33;;;;;;;0.55;0.55;;;;;;;;;;4888263;29;20051;-72
2023/09/12 02:25:00;;;;;;;0.35;0.35;;;;;;;;;;4866689;29;20522;-72
2023/09/12 02:27:27;;;;;;;0.00;0.00;;;;;;;;;;4870763;29;20432;-72
2023/09/12 02:29:55;;;;;;;0.00;0.00;;;;;;;;;;4888688;29;20059;-72
2023/09/12 02:32:22;;;;;;;1.70;1.60;;;;;;;;;;4888227;29;20051;-72
2023/09/12 02:34:50;;;;;;;1.02;1.02;;;;;;;;;;4888174;29;20552;-72
2023/09/12 02:37:17;;;;;;;0.00;0.00;;;;;;;;;;4884129;29;20135;-72
2023/09/12 02:39:45;;;;;;;0.85;0.73;;;;;;;;;;4868276;29;20044;-72
2023/09/12 02:42:12;;;;;;;0.60;0.60;;;;;;;;;;4870286;29;20048;-72
2023/09/12 02:44:40;;;;;;;0.28;0.28;;;;;;;;;;4889340;29;20048;-72
2023/09/12 02:47:08;;;;;;;0.22;0.22;;;;;;;;;;4889115;29;20104;-72
2023/09/12 02:49:35;;;;;;;0.00;0.00;;;;;;;;;;4875352;29;20511;-72
2023/09/12 02:52:03;;;;;;;0.10;0.10;;;;;;;;;;4872822;29;20144;-72
2023/09/12 02:54:30;;;;;;;0.20;0.20;;;;;;;;;;4876092;29;20448;-72
2023/09/12 02:56:58;;;;;;;0.20;0.20;;;;;;;;;;4876242;29;20059;-72
2023/09/12 02:59:25;;;;;;;0.38;0.38;;;;;;;;;;4873966;29;20048;-72
2023/09/12 03:01:53;;;;;;;0.00;0.00;;;;;;;;;;4893012;29;20049;-72
2023/09/12 03:04:20;;;;;;;0.00;0.00;;;;;;;;;;4874625;29;20059;-72
2023/09/12 03:06:47;;;;;;;0.20;0.20;;;;;;;;;;4875538;29;20581;-72
2023/09/12 03:09:17;;;;;;;3.80;3.60;;;;;;;;;;4867934;29;20053;-72
2023/09/12 03:11:44;;;;;;;0.52;0.52;;;;;;;;;;4875758;29;20049;-72
2023/09/12 03:14:12;;;;;;;0.25;0.25;;;;;;;;;;4874103;29;20048;-72
2023/09/12 03:16:39;;;;;;;4.30;3.13;;;;;;;;;;4892292;29;20523;-72
2023/09/12 03:19:07;;;;;;;4.93;4.65;;;;;;;;;;4874266;29;20044;-72
2023/09/12 03:21:35;;;;;;;3.03;1.38;;;;;;;;;;4875001;29;20055;-72
2023/09/12 03:24:02;;;;;;;0.00;0.00;;;;;;;;;;4875211;29;20095;-72
2023/09/12 03:26:30;;;;;;;6.47;6.13;;;;;;;;;;4873977;29;20056;-72
2023/09/12 03:28:58;;;;;;;0.40;0.40;;;;;;;;;;4874178;29;20144;-72
2023/09/12 03:31:25;;;;;;;0.03;0.03;;;;;;;;;;4891188;29;20057;-72
2023/09/12 03:33:53;;;;;;;0.52;0.52;;;;;;;;;;4874576;29;20052;-72
2023/09/12 03:36:21;;;;;;;1.13;0.55;;;;;;;;;;4874115;29;20056;-72
2023/09/12 03:38:48;;;;;;;2.17;0.22;;;;;;;;;;4874312;29;20108;-72
2023/09/12 03:41:17;;;;;;;32.05;29.98;;;;;;;;;;4874092;29;20055;-72
2023/09/12 03:43:45;;;;;;;1.83;1.65;;;;;;;;;;4875126;29;20128;-72
2023/09/12 03:46:12;;;;;;;0.22;0.20;;;;;;;;;;4891426;29;20052;-72
2023/09/12 03:48:39;;;;;;;0.38;0.38;;;;;;;;;;4873847;29;20048;-72
2023/09/12 03:51:07;;;;;;;7.18;6.70;;;;;;;;;;4866789;29;20503;-72
2023/09/12 03:53:35;;;;;;;10.45;9.82;;;;;;;;;;4890444;29;20059;-72
2023/09/12 03:56:02;;;;;;;0.95;0.95;;;;;;;;;;4891264;29;20057;-72
2023/09/12 03:58:30;;;;;;;0.22;0.20;;;;;;;;;;4873097;29;20052;-72
2023/09/12 04:00:58;;;;;;;0.00;0.00;;;;;;;;;;4875011;29;20068;-72
2023/09/12 04:03:25;;;;;;;0.10;0.10;;;;;;;;;;4873882;29;20083;-72
2023/09/12 04:05:54;;;;;;;0.05;0.05;;;;;;;;;;4874804;29;20513;-72
2023/09/12 04:08:21;;;;;;;16.92;15.38;;;;;;;;;;4889662;29;20075;-72
2023/09/12 04:10:49;;;;;;;0.20;0.20;;;;;;;;;;4874474;29;20053;-72
2023/09/12 04:13:16;;;;;;;0.85;0.85;;;;;;;;;;4890935;29;20056;-72
2023/09/12 04:15:44;;;;;;;0.20;0.20;;;;;;;;;;4874598;29;20135;-72
2023/09/12 04:18:11;;;;;;;8.98;8.50;;;;;;;;;;4890022;29;20060;-72
2023/09/12 04:20:39;;;;;;;12.95;12.25;;;;;;;;;;4890830;29;20180;-72
2023/09/12 04:23:06;;;;;;;0.68;0.68;;;;;;;;;;4867313;29;20116;-73
2023/09/12 04:25:34;;;;;;;0.10;0.10;;;;;;;;;;4873341;29;20048;-73
2023/09/12 04:28:01;;;;;;;0.45;0.45;;;;;;;;;;4889071;29;20060;-73
2023/09/12 04:30:29;;;;;;;0.00;0.00;;;;;;;;;;4873989;29;20053;-72
2023/09/12 04:32:56;;;;;;;1.92;1.83;;;;;;;;;;4890622;29;20051;-73
2023/09/12 04:35:25;;;;;;;0.00;0.00;;;;;;;;;;4872926;29;20056;-73
2023/09/12 04:37:52;;;;;;;11.63;10.88;;;;;;;;;;4873589;29;20140;-73
2023/09/12 04:40:20;;;;;;;2.47;2.38;;;;;;;;;;4873729;29;20049;-73
2023/09/12 04:42:47;;;;;;;0.63;0.50;;;;;;;;;;4873759;29;20551;-73
2023/09/12 04:45:15;;;;;;;2.60;0.55;;;;;;;;;;4873641;29;20044;-72
2023/09/12 04:47:43;;;;;;;0.20;0.20;;;;;;;;;;4872296;29;20049;-72
2023/09/12 04:50:11;;;;;;;0.25;0.25;;;;;;;;;;4858656;29;20049;-73
2023/09/12 04:52:39;;;;;;;0.10;0.10;;;;;;;;;;4890597;29;20103;-73
2023/09/12 04:55:06;;;;;;;0.08;0.08;;;;;;;;;;4891123;29;20539;-72
2023/09/12 04:57:34;;;;;;;0.57;0.57;;;;;;;;;;4890129;29;20057;-73
2023/09/12 05:00:01;;;;;;;0.00;0.00;;;;;;;;;;4874108;29;20044;-72
2023/09/12 05:02:30;;;;;;;0.25;0.25;;;;;;;;;;4865025;29;20059;-73
2023/09/12 05:04:58;;;;;;;0.30;0.25;;;;;;;;;;4891098;29;20052;-73
2023/09/12 05:07:26;;;;;;;2.10;0.43;;;;;;;;;;4873045;29;20417;-73
2023/09/12 05:09:53;;;;;;;0.30;0.30;;;;;;;;;;4872409;29;20057;-73
2023/09/12 05:12:21;;;;;;;0.35;0.13;;;;;;;;;;4873178;29;20487;-73
2023/09/12 05:14:48;;;;;;;0.35;0.20;;;;;;;;;;4890765;29;20044;-73
2023/09/12 05:17:16;;;;;;;0.10;0.10;;;;;;;;;;4872424;29;20482;-72
2023/09/12 05:19:44;;;;;;;0.10;0.10;;;;;;;;;;4885044;29;20056;-73
2023/09/12 05:22:11;;;;;;;0.00;0.00;;;;;;;;;;4886399;29;20389;-73
2023/09/12 05:24:39;;;;;;;0.70;0.55;;;;;;;;;;4890133;29;20052;-73
2023/09/12 05:27:06;;;;;;;0.32;0.32;;;;;;;;;;4888341;29;20084;-73
2023/09/12 05:29:34;;;;;;;0.43;0.43;;;;;;;;;;4888057;29;20471;-73
2023/09/12 05:32:02;;;;;;;0.30;0.30;;;;;;;;;;4871742;29;20120;-73
2023/09/12 05:34:29;;;;;;;0.10;0.10;;;;;;;;;;4868846;29;20443;-73
2023/09/12 05:36:57;;;;;;;0.38;0.20;;;;;;;;;;4869432;29;20063;-73
2023/09/12 05:39:25;;;;;;;0.50;0.50;;;;;;;;;;4871322;29;20048;-73
2023/09/12 05:41:52;;;;;;;1.13;1.13;;;;;;;;;;4872255;29;20049;-72
2023/09/12 05:44:20;;;;;;;0.35;0.32;;;;;;;;;;4869166;29;20051;-73
2023/09/12 05:46:47;;;;;;;0.10;0.10;;;;;;;;;;4869520;29;20503;-73
2023/09/12 05:49:15;;;;;;;0.15;0.15;;;;;;;;;;4864087;29;20302;-72
2023/09/12 05:51:43;;;;;;;0.25;0.25;;;;;;;;;;4865426;29;20053;-73
2023/09/12 05:54:13;;;;;;;0.17;0.17;;;;;;;;;;4889393;29;20059;-73
2023/09/12 05:56:41;;;;;;;2.72;2.58;;;;;;;;;;4871792;29;20467;-72
2023/09/12 05:59:09;;;;;;;0.08;0.08;;;;;;;;;;4893092;29;20064;-73
2023/09/12 06:01:36;;;;;;;0.13;0.13;;;;;;;;;;4893703;29;20045;-70
2023/09/12 06:04:04;;;;;;;0.65;0.65;;;;;;;;;;4893410;29;20495;-70
2023/09/12 06:06:33;;;;;;;0.00;0.00;;;;;;;;;;4908636;29;20064;-71
2023/09/12 06:09:00;;;;;;;5.10;4.80;;;;;;;;;;4907750;29;20079;-73
2023/09/12 06:11:27;;;;;;;0.00;0.00;;;;;;;;;;4894813;29;20056;-74
2023/09/12 06:13:55;;;;;;;0.00;0.00;;;;;;;;;;4879934;29;20108;-73
2023/09/12 06:16:22;;;;;;;0.30;0.22;;;;;;;;;;4886410;29;20060;-73
2023/09/12 06:18:50;;;;;;;0.65;0.20;;;;;;;;;;4886433;29;20056;-72
2023/09/12 06:21:17;;;;;;;0.30;0.30;;;;;;;;;;4887921;29;20056;-73
2023/09/12 06:23:45;;;;;;;0.35;0.35;;;;;;;;;;4887559;29;20056;-73
2023/09/12 06:26:12;;;;;;;0.43;0.43;;;;;;;;;;4888339;29;20359;-73
2023/09/12 06:28:40;;;;;;;3.78;3.58;;;;;;;;;;4888299;29;20878;-72
2023/09/12 06:31:09;;;;;;;0.38;0.38;;;;;;;;;;4887947;29;20116;-73
2023/09/12 06:33:38;;;;;;;0.00;0.00;;;;;;;;;;4887845;29;20053;-72
2023/09/12 06:36:06;;;;;;;0.30;0.30;;;;;;;;;;4887644;29;20060;-73
2023/09/12 06:38:33;;;;;;;6.68;6.32;;;;;;;;;;4885913;29;20052;-73
2023/09/12 06:41:01;;;;;;;0.00;0.00;;;;;;;;;;4889776;29;20056;-73
2023/09/12 06:43:30;;;;;;;0.80;0.55;;;;;;;;;;4887826;29;20043;-73
2023/09/12 06:45:57;;;;;;;0.15;0.15;;;;;;;;;;4885517;29;20052;-72
2023/09/12 06:48:25;;;;;;;0.10;0.10;;;;;;;;;;4887100;29;20047;-72
2023/09/12 06:50:54;;;;;;;0.10;0.10;;;;;;;;;;4887864;29;20143;-72
2023/09/12 06:53:21;;;;;;;0.10;0.10;;;;;;;;;;4887428;29;20061;-72
2023/09/12 06:55:49;;;;;;;0.57;0.35;;;;;;;;;;4887725;29;20071;-72
2023/09/12 06:58:16;;;;;;;0.10;0.10;;;;;;;;;;4882199;29;20125;-72
2023/09/12 07:00:44;;;;;;;0.00;0.00;;;;;;;;;;4884924;29;20059;-72
2023/09/12 07:03:11;;;;;;;0.10;0.10;;;;;;;;;;4885434;29;20057;-72
2023/09/12 07:05:43;;;;;;;0.05;0.05;;;;;;;;;;4879448;29;23440;-72
2023/09/12 07:08:11;;;;;;;0.25;0.25;;;;;;;;;;4878965;29;20409;-72
2023/09/12 07:10:45;;;;;;;0.30;0.30;;;;;;;;;;4874988;29;20329;-72
2023/09/12 07:13:12;;;;;;;0.10;0.10;;;;;;;;;;4878104;29;20140;-72
2023/09/12 07:15:40;;;;;;;0.00;0.00;;;;;;;;;;4879020;29;20049;-72
2023/09/12 07:18:08;;;;;;;0.17;0.17;;;;;;;;;;4883542;29;20072;-72
2023/09/12 07:20:35;;;;;;;0.35;0.35;;;;;;;;;;4880368;29;20422;-73
2023/09/12 07:23:03;;;;;;;0.22;0.22;;;;;;;;;;4884598;29;20037;-72
2023/09/12 07:25:30;;;;;;;0.30;0.30;;;;;;;;;;4888323;29;20064;-73
2023/09/12 07:27:58;;;;;;;1.10;0.55;;;;;;;;;;4889058;29;20056;-73
2023/09/12 07:30:25;;;;;;;0.00;0.00;;;;;;;;;;4870508;29;20052;-73
2023/09/12 07:32:53;;;;;;;3.53;3.30;;;;;;;;;;4920849;23;20044;-74
2023/09/12 07:35:23;;;;;;;0.65;0.47;;;;;;;;;;4887512;29;20059;-74
2023/09/12 07:37:52;;;;;;;0.28;0.28;;;;;;;;;;4869511;29;20482;-72
2023/09/12 07:40:19;;;;;;;0.20;0.15;;;;;;;;;;4881939;29;20048;-73
2023/09/12 07:42:47;;;;;;;0.50;0.50;;;;;;;;;;4885565;29;20072;-73
2023/09/12 07:45:14;;;;;;;0.20;0.20;;;;;;;;;;4881922;29;20564;-73
2023/09/12 07:47:44;;;;;;;0.10;0.10;;;;;;;;;;4882257;29;20119;-74
2023/09/12 07:50:12;;;;;;;0.00;0.00;;;;;;;;;;4879198;29;20107;-74
2023/09/12 07:52:39;;;;;;;0.00;0.00;;;;;;;;;;4883095;29;20100;-74
2023/09/12 07:55:11;;;;;;;3.25;3.05;;;;;;;;;;4872486;29;20071;-74
2023/09/12 07:57:43;;;;;;;1.30;1.05;;;;;;;;;;4881832;29;20415;-76
2023/09/12 08:00:18;;;;;;;1.27;0.35;;;;;;;;;;4883910;29;20041;-75
2023/09/12 08:02:45;;;;;;;0.32;0.32;;;;;;;;;;4883755;29;20105;-74
2023/09/12 08:05:13;;;;;;;0.00;0.00;;;;;;;;;;4883874;29;20053;-74
2023/09/12 08:07:40;;;;;;;0.10;0.10;;;;;;;;;;4884068;29;20144;-74
2023/09/12 08:10:08;;;;;;;0.20;0.20;;;;;;;;;;4882434;29;20049;-75
2023/09/12 08:12:38;;;;;;;0.00;0.00;;;;;;;;;;4886190;29;20069;-75
2023/09/12 08:15:06;;;;;;;0.95;0.75;;;;;;;;;;4891399;29;20108;-76
2023/09/12 08:17:33;;;;;;;0.03;0.03;;;;;;;;;;4879581;29;20060;-73
2023/09/12 08:20:01;;;;;;;0.30;0.30;;;;;;;;;;4882421;29;20057;-75
2023/09/12 08:22:29;;;;;;;0.10;0.10;;;;;;;;;;4890742;29;20431;-75
2023/09/12 08:24:56;;;;;;;0.00;0.00;;;;;;;;;;4888952;29;20507;-73
2023/09/12 08:27:23;;;;;;;1.00;0.88;;;;;;;;;;4892787;29;20065;-73
2023/09/12 08:29:51;;;;;;;0.28;0.28;;;;;;;;;;4892510;29;20060;-73
2023/09/12 08:32:18;;;;;;;0.73;0.45;;;;;;;;;;4892074;29;20056;-74
2023/09/12 08:34:48;;;;;;;2.60;2.50;;;;;;;;;;4891474;29;20056;-72
2023/09/12 08:37:16;;;;;;;0.00;0.00;;;;;;;;;;4892129;29;20434;-73
2023/09/12 08:39:45;;;;;;;0.13;0.13;;;;;;;;;;4892293;29;20067;-73
2023/09/12 08:42:13;;;;;;;0.10;0.10;;;;;;;;;;4892368;29;20427;-72
2023/09/12 08:44:44;;;;;;;0.10;0.10;;;;;;;;;;4888618;29;20083;-73
2023/09/12 08:47:12;;;;;;;0.10;0.10;;;;;;;;;;4892226;29;20051;-74
2023/09/12 08:49:42;;;;;;;0.10;0.10;;;;;;;;;;4890447;29;20416;-71
2023/09/12 08:52:10;;;;;;;0.30;0.30;;;;;;;;;;4874982;29;20108;-73
2023/09/12 08:54:37;;;;;;;0.10;0.10;;;;;;;;;;4891970;29;20059;-73
2023/09/12 08:57:06;;;;;;;0.10;0.10;;;;;;;;;;4891736;29;20052;-72
2023/09/12 08:59:34;;;;;;;0.03;0.03;;;;;;;;;;4891142;29;20164;-73
2023/09/12 09:02:03;;;;;;;8.95;8.30;;;;;;;;;;4892175;29;20463;-73
2023/09/12 09:04:31;;;;;;;0.03;0.03;;;;;;;;;;4891947;29;20055;-73
2023/09/12 09:06:59;;;;;;;0.10;0.10;;;;;;;;;;4891889;29;20056;-71
2023/09/12 09:09:31;;;;;;;0.95;0.45;;;;;;;;;;4891718;29;20060;-71
2023/09/12 09:11:58;;;;;;;0.73;0.73;;;;;;;;;;4888292;29;20132;-72
2023/09/12 09:14:26;;;;;;;1.20;0.40;;;;;;;;;;4884548;29;20128;-73
2023/09/12 09:16:54;;;;;;;0.22;0.22;;;;;;;;;;4881341;29;20061;-72
2023/09/12 09:19:22;;;;;;;0.65;0.65;;;;;;;;;;4884046;29;20110;-72
2023/09/12 09:21:49;;;;;;;0.38;0.38;;;;;;;;;;4887933;29;20053;-73
2023/09/12 09:24:18;;;;;;;0.05;0.05;;;;;;;;;;4885584;29;20079;-72
2023/09/12 09:26:58;;;;;;;0.20;0.20;;;;;;;;;;4887276;29;20070;-72
2023/09/12 09:29:31;;;;;;;0.10;0.10;;;;;;;;;;4885071;29;20051;-72
2023/09/12 09:31:59;;;;;;;0.47;0.40;;;;;;;;;;4884244;29;20061;-72
2023/09/12 09:34:31;;;;;;;0.50;0.50;;;;;;;;;;4888910;29;20119;-72
2023/09/12 09:37:03;;;;;;;0.60;0.60;;;;;;;;;;4886480;29;20075;-72
2023/09/12 09:39:36;;;;;;;0.57;0.57;;;;;;;;;;4890330;29;21052;-72
2023/09/12 09:42:10;;;;;;;0.17;0.17;;;;;;;;;;4871660;29;20084;-73
2023/09/12 09:44:38;;;;;;;0.57;0.57;;;;;;;;;;4888645;29;20068;-71
2023/09/12 09:47:05;;;;;;;0.08;0.08;;;;;;;;;;4889613;29;20052;-72
2023/09/12 09:49:34;;;;;;;0.00;0.00;;;;;;;;;;4891388;29;20534;-71
2023/09/12 09:52:04;;;;;;;2.55;1.55;;;;;;;;;;4890460;29;20479;-72
2023/09/12 09:54:32;;;;;;;;;;;;;;;;;;4884039;29;20151;-72
2023/09/12 09:57:00;;;;;;;0.25;0.25;;;;;;;;;;4888834;29;20334;-72
2023/09/12 09:59:28;;;;;;;0.00;0.00;;;;;;;;;;4872110;29;20525;-74
2023/09/12 10:01:59;;;;;;;0.00;0.00;;;;;;;;;;4888694;29;20518;-73
2023/09/12 10:04:32;;;;;;;0.45;0.40;;;;;;;;;;4888650;29;20052;-73
2023/09/12 10:07:12;;;;;;;0.20;0.20;;;;;;;;;;4888002;29;20517;-73
2023/09/12 10:09:42;;;;;;;0.10;0.10;;;;;;;;;;4889073;29;20403;-73
2023/09/12 10:12:10;;;;;;;0.00;0.00;;;;;;;;;;4886825;29;20059;-71
2023/09/12 10:14:38;;;;;;;0.00;0.00;;;;;;;;;;4888787;29;20053;-73
2023/09/12 10:17:06;;;;;;;1.90;1.80;;;;;;;;;;4887512;29;20056;-73
2023/09/12 10:19:48;;;;;;;0.00;0.00;;;;;;;;;;4887538;29;20518;-74
2023/09/12 10:22:22;;;;;;;0.00;0.00;;;;;;;;;;4885070;29;20123;-72
2023/09/12 10:24:50;;;;;;;0.00;0.00;;;;;;;;;;4887497;29;20374;-74
2023/09/12 10:27:20;;;;;;;0.35;0.28;;;;;;;;;;4885186;29;20063;-73
2023/09/12 10:29:49;;;;;;;0.00;0.00;;;;;;;;;;4888323;29;20047;-73
2023/09/12 10:35:40;;;;;;;0.82;0.80;;;;;;;;;;4884441;29;20419;-74
2023/09/12 10:38:09;;;;;;;0.00;0.00;;;;;;;;;;4887978;29;20139;-73
2023/09/12 10:40:37;;;;;;;0.22;0.22;;;;;;;;;;4882380;29;20052;-72
2023/09/12 10:43:11;;;;;;;0.15;0.15;;;;;;;;;;4886648;29;20052;-73
2023/09/12 10:45:39;;;;;;;1.40;0.28;;;;;;;;;;4889401;29;20053;-72
2023/09/12 10:48:09;;;;;;;0.00;0.00;;;;;;;;;;4888390;29;20059;-73
2023/09/12 10:50:38;;;;;;;0.00;0.00;;;;;;;;;;4889130;29;20040;-76
2023/09/12 10:53:10;;;;;;;0.38;0.38;;;;;;;;;;4891148;29;20095;-73
2023/09/12 10:55:37;;;;;;;0.30;0.30;;;;;;;;;;4890878;29;20108;-73
2023/09/12 10:58:06;;;;;;;0.10;0.10;;;;;;;;;;4891360;29;20064;-72
2023/09/12 11:00:39;;;;;;;5.82;0.50;;;;;;;;;;4890187;29;20084;-73
2023/09/12 11:03:33;;;;;;;0.00;0.00;;;;;;;;;;4889059;29;20048;-73
2023/09/12 11:06:03;;;;;;;0.10;0.10;;;;;;;;;;4884328;29;20139;-72
2023/09/12 11:08:35;;;;;;;0.17;0.17;;;;;;;;;;4889470;29;20459;-72
2023/09/12 11:11:20;;;;;;;0.32;0.32;;;;;;;;;;4894395;29;20533;-73
2023/09/12 11:13:50;;;;;;;0.00;0.00;;;;;;;;;;4890049;29;20048;-70
2023/09/12 11:16:19;;;;;;;0.20;0.20;;;;;;;;;;4893377;29;20052;-72
2023/09/12 11:19:05;;;;;;;0.20;0.20;;;;;;;;;;4893657;29;20045;-72
2023/09/12 11:21:33;;;;;;;0.35;0.35;;;;;;;;;;4892864;29;20055;-72
2023/09/12 11:24:00;;;;;;;0.00;0.00;;;;;;;;;;4893536;29;20131;-73
2023/09/12 11:26:28;;;;;;;0.00;0.00;;;;;;;;;;4889749;29;20495;-73
2023/09/12 11:28:56;;;;;;;0.47;0.38;;;;;;;;;;4893720;29;20108;-73
2023/09/12 11:31:27;;;;;;;0.00;0.00;;;;;;;;;;4893019;29;20057;-73
2023/09/12 11:33:54;;;;;;;4.40;0.30;;;;;;;;;;4892885;29;20112;-73
2023/09/12 11:36:22;;;;;;;0.00;0.00;;;;;;;;;;4876454;29;20059;-73
2023/09/12 11:38:50;;;;;;;0.35;0.35;;;;;;;;;;4892148;29;20101;-73
2023/09/12 11:41:36;;;;;;;0.03;0.03;;;;;;;;;;4890154;29;20064;-73
2023/09/12 11:44:04;;;;;;;0.10;0.10;;;;;;;;;;4891483;29;20060;-73
2023/09/12 11:46:32;;;;;;;0.10;0.10;;;;;;;;;;4892752;29;20505;-73
2023/09/12 11:49:02;;;;;;;0.50;0.47;;;;;;;;;;4892304;29;20060;-73
2023/09/12 11:51:30;;;;;;;0.08;0.08;;;;;;;;;;4891676;29;20048;-73
2023/09/12 11:53:59;;;;;;;0.20;0.20;;;;;;;;;;4891607;29;20123;-73
2023/09/12 11:56:29;;;;;;;0.00;0.00;;;;;;;;;;4892936;29;20131;-73
2023/09/12 11:58:56;;;;;;;2.50;2.40;;;;;;;;;;4892861;29;20091;-73
2023/09/12 12:01:24;;;;;;;0.30;0.28;;;;;;;;;;4892663;29;20395;-73
2023/09/12 12:03:52;;;;;;;0.00;0.00;;;;;;;;;;4891182;29;20052;-73
2023/09/12 12:06:20;;;;;;;0.40;0.40;;;;;;;;;;4888823;29;20075;-73
2023/09/12 12:08:48;;;;;;;0.38;0.38;;;;;;;;;;4886668;29;20044;-73
2023/09/12 12:11:15;;;;;;;0.00;0.00;;;;;;;;;;4890040;29;20458;-73
2023/09/12 12:13:45;;;;;;;3.97;3.75;;;;;;;;;;4890948;29;20411;-73
2023/09/12 12:16:16;;;;;;;0.00;0.00;;;;;;;;;;4887857;29;20068;-73
2023/09/12 12:18:45;;;;;;;0.20;0.20;;;;;;;;;;4889581;29;20059;-73
2023/09/12 12:21:12;;;;;;;0.55;0.55;;;;;;;;;;4890473;29;20087;-73
2023/09/12 12:23:40;;;;;;;0.10;0.10;;;;;;;;;;4886470;29;20384;-73
2023/09/12 12:26:11;;;;;;;0.00;0.00;;;;;;;;;;4881731;29;20067;-73
2023/09/12 12:28:39;;;;;;;0.13;0.13;;;;;;;;;;4881907;29;20073;-73
2023/09/12 12:31:07;;;;;;;0.00;0.00;;;;;;;;;;4890043;29;20407;-73
2023/09/12 12:33:34;;;;;;;0.00;0.00;;;;;;;;;;4887295;29;20076;-73
2023/09/12 12:36:25;;;;;;;0.00;0.00;;;;;;;;;;4883306;29;20055;-77
2023/09/12 12:38:53;;;;;;;0.47;0.47;;;;;;;;;;4883620;29;20077;-75
2023/09/12 12:41:25;;;;;;;0.00;0.00;;;;;;;;;;4885199;29;20131;-75
2023/09/12 12:44:00;;;;;;;0.10;0.10;;;;;;;;;;4886864;29;20068;-75
2023/09/12 12:46:30;;;;;;;0.20;0.20;;;;;;;;;;4886936;29;20131;-75
2023/09/12 12:49:00;;;;;;;0.10;0.10;;;;;;;;;;4884724;29;20053;-74
2023/09/12 12:51:29;;;;;;;0.10;0.10;;;;;;;;;;4882115;29;20060;-74
2023/09/12 12:54:04;;;;;;;0.20;0.20;;;;;;;;;;4881207;29;20057;-75
2023/09/12 12:56:31;;;;;;;0.17;0.17;;;;;;;;;;4883235;29;20056;-75
2023/09/12 12:59:02;;;;;;;0.08;0.08;;;;;;;;;;4878278;29;20069;-75
2023/09/12 13:01:31;;;;;;;0.00;0.00;;;;;;;;;;4887103;29;20139;-74
2023/09/12 13:03:58;;;;;;;0.45;0.45;;;;;;;;;;4882971;29;20056;-74
2023/09/12 13:06:29;;;;;;;0.10;0.10;;;;;;;;;;4885444;29;20063;-73
2023/09/12 13:09:01;;;;;;;0.20;0.20;;;;;;;;;;4887149;29;20534;-75
2023/09/12 13:11:28;;;;;;;0.22;0.22;;;;;;;;;;4884967;29;20073;-76
2023/09/12 13:13:56;;;;;;;0.10;0.10;;;;;;;;;;4871468;29;20571;-73
2023/09/12 13:16:23;;;;;;;0.38;0.38;;;;;;;;;;4880456;29;20511;-75
2023/09/12 13:18:51;;;;;;;0.40;0.40;;;;;;;;;;4882720;29;20058;-76
2023/09/12 13:21:19;;;;;;;0.30;0.30;;;;;;;;;;4884120;29;20060;-74
2023/09/12 13:23:46;;;;;;;0.10;0.10;;;;;;;;;;4884944;29;20522;-76
2023/09/12 13:26:14;;;;;;;0.70;0.70;;;;;;;;;;4884300;29;20048;-74
2023/09/12 13:28:41;;;;;;;0.50;0.45;;;;;;;;;;4885546;29;20040;-74
2023/09/12 13:31:09;;;;;;;0.20;0.10;;;;;;;;;;4878892;29;20045;-75
2023/09/12 13:33:36;;;;;;;0.08;0.08;;;;;;;;;;4884067;29;20064;-75
2023/09/12 13:36:04;;;;;;;0.10;0.10;;;;;;;;;;4873809;29;20207;-76
2023/09/12 13:38:32;;;;;;;0.10;0.10;;;;;;;;;;4879583;29;20056;-73
2023/09/12 13:40:59;;;;;;;0.82;0.68;;;;;;;;;;4874300;29;20492;-75
2023/09/12 13:43:28;;;;;;;0.30;0.30;;;;;;;;;;4880383;29;20048;-74
2023/09/12 13:45:58;;;;;;;;;;;;;;;;;;4877802;29;20045;-74
2023/09/12 13:48:26;;;;;;;0.10;0.10;;;;;;;;;;4879674;29;20478;-75
2023/09/12 13:50:54;;;;;;;0.00;0.00;;;;;;;;;;4877568;29;20058;-74
2023/09/12 13:53:21;;;;;;;0.03;0.03;;;;;;;;;;4880507;29;20052;-75
2023/09/12 13:55:50;;;;;;;0.55;0.55;;;;;;;;;;4876097;29;20160;-74
2023/09/12 13:58:37;;;;;;;0.50;0.50;;;;;;;;;;4875765;29;20044;-75
2023/09/12 14:01:10;;;;;;;0.00;0.00;;;;;;;;;;4868959;29;20404;-74
2023/09/12 14:03:44;;;;;;;0.00;0.00;;;;;;;;;;4873933;29;20139;-74
2023/09/12 14:06:13;;;;;;;0.30;0.20;;;;;;;;;;4872270;29;20128;-74
2023/09/12 14:08:41;;;;;;;0.35;0.35;;;;;;;;;;4873888;29;20524;-75
2023/09/12 14:11:08;;;;;;;0.20;0.20;;;;;;;;;;4871540;29;20104;-75
2023/09/12 14:13:54;;;;;;;6.65;6.18;;;;;;;;;;4881988;29;20157;-74
2023/09/12 14:16:41;;;;;;;0.40;0.40;;;;;;;;;;4876411;29;20056;-74
2023/09/12 14:19:15;;;;;;;0.10;0.10;;;;;;;;;;4872792;29;20052;-74
2023/09/12 14:21:44;;;;;;;0.00;0.00;;;;;;;;;;4873567;29;20097;-75
2023/09/12 14:24:13;;;;;;;0.20;0.20;;;;;;;;;;4872644;29;20051;-75
2023/09/12 14:26:41;;;;;;;0.00;0.00;;;;;;;;;;4881088;29;20055;-75
2023/09/12 14:29:10;;;;;;;0.10;0.10;;;;;;;;;;4882307;29;20049;-75
2023/09/12 14:31:38;;;;;;;0.35;0.35;;;;;;;;;;4885042;29;20044;-76
2023/09/12 14:34:07;;;;;;;4.43;4.13;;;;;;;;;;4885404;29;20053;-75
2023/09/12 14:36:35;;;;;;;0.00;0.00;;;;;;;;;;4879873;29;20227;-76
2023/09/12 14:39:03;;;;;;;4.88;4.57;;;;;;;;;;4885386;29;20065;-76
2023/09/12 14:41:30;;;;;;;0.15;0.15;;;;;;;;;;4876046;29;20079;-76
2023/09/12 14:43:58;;;;;;;0.38;0.38;;;;;;;;;;4884399;29;20044;-75
2023/09/12 14:46:25;;;;;;;0.20;0.20;;;;;;;;;;4880531;29;20116;-76
2023/09/12 14:48:53;;;;;;;0.60;0.60;;;;;;;;;;4890247;29;20063;-74
2023/09/12 14:51:29;;;;;;;0.25;0.10;;;;;;;;;;4886989;29;20052;-75
2023/09/12 14:54:00;;;;;;;0.10;0.10;;;;;;;;;;4889746;29;20089;-74
2023/09/12 14:56:28;;;;;;;0.32;0.32;;;;;;;;;;4889197;29;20067;-73